Date,TemperatureHighF,TemperatureAvgF,TemperatureLowF,DewpointHighF,DewpointAvgF,DewpointLowF,HumidityHigh,HumidityAvg,HumidityLow,PressureMaxIn,PressureMinIn,WindSpeedMaxMPH,WindSpeedAvgMPH,GustSpeedMaxMPH,PrecipitationSumIn
2013-1-1,26.7,20.0,10.5,19.4,12.3,5.2,84,72,50,30.25,30.12,16,5,0,0.00
2013-1-2,24.2,15.5,7.7,13.8,9.2,4.4,87,77,53,30.29,30.19,14,6,18,0.00
2013-1-3,32.4,24.6,17.3,25.4,19.2,12.4,90,80,65,30.32,30.17,20,9,23,0.00
2013-1-4,32.4,21.9,12.0,24.3,17.6,9.0,91,84,67,30.32,30.22,23,9,25,0.00
2013-1-5,33.9,27.4,16.9,31.6,24.6,14.4,96,89,74,30.31,30.02,18,8,21,0.01
2013-1-6,34.3,26.1,14.2,31.6,22.9,12.3,93,87,79,30.38,29.97,22,9,25,0.01
2013-1-7,36.2,24.7,12.1,27.6,20.8,10.2,93,85,66,30.41,30.17,28,8,28,0.00
2013-1-8,41.4,31.5,23.8,33.1,27.2,21.3,92,84,70,30.23,30.09,15,6,17,0.00
2013-1-9,49.3,37.6,23.9,35.4,28.3,19.6,90,71,36,30.53,30.08,27,9,29,0.00
2013-1-10,42.9,33.2,20.7,41.7,27.9,17.1,96,82,57,30.53,29.93,18,6,22,0.40
2013-1-11,52.3,48.4,42.5,51.5,47.5,41.4,97,97,94,29.93,29.72,21,9,22,0.14
2013-1-13,25.1,19.0,13.6,23.6,15.8,9.7,94,87,83,30.29,29.98,19,10,23,0.00
2013-1-14,24.0,15.7,11.3,17.5,11.7,7.8,92,84,70,30.52,30.29,12,3,0,0.00
2013-1-15,28.7,19.5,9.8,21.8,15.4,7.2,92,84,68,30.48,30.16,9,1,0,0.00
2013-1-16,34.9,25.8,14.3,28.3,21.4,11.7,92,84,69,30.17,29.92,24,8,27,0.00
2013-1-17,32.9,25.8,15.4,28.4,18.0,11.2,94,74,46,30.45,30.09,17,5,0,0.00
2013-1-18,38.8,29.0,14.7,29.7,23.0,11.7,91,79,65,30.48,30.01,27,11,32,0.00
2013-1-19,47.6,40.0,29.7,37.9,32.5,17.4,84,75,50,30.03,29.78,34,14,40,0.00
2013-1-20,29.4,18.3,13.0,20.2,8.3,5.4,74,65,53,30.32,29.93,26,10,32,0.00
2013-1-21,15.0,9.4,3.7,8.0,1.1,-4.0,85,68,52,30.34,30.19,27,12,28,0.00
2013-1-22,11.8,6.4,-1.9,1.3,-2.2,-6.2,81,67,52,30.46,30.33,17,8,20,0.00
2013-1-23,20.8,15.7,10.6,13.0,6.7,0.3,87,67,57,30.41,30.16,23,8,26,0.00
2013-1-24,21.4,14.4,6.7,11.0,5.1,-0.2,79,67,46,30.67,30.34,17,7,18,0.00
2013-1-25,28.0,21.7,16.7,22.0,16.1,9.4,90,79,67,30.44,30.04,17,6,19,0.00
2013-1-26,30.3,21.0,9.3,19.4,13.8,5.5,87,74,54,30.45,30.20,12,4,0,0.00
2013-1-27,36.4,28.4,20.4,35.4,24.0,16.5,96,84,71,30.44,29.98,18,7,21,0.07
2013-1-28,49.0,45.1,36.5,48.2,44.2,35.5,98,97,96,29.98,29.85,25,7,25,0.05
2013-1-29,59.6,56.2,46.6,57.8,55.0,46.1,98,96,93,29.85,29.39,26,14,32,0.79
2013-1-30,50.7,36.7,21.0,49.9,35.0,16.9,98,94,83,29.65,29.20,27,11,32,0.23
2013-1-31,21.1,14.7,5.4,18.6,10.2,0.9,90,82,75,30.19,29.65,28,16,29,0.00
2013-2-1,17.8,17.4,16.9,14.6,13.0,11.5,90,83,77,30.28,30.26,15,8,16,0.00
2013-2-2,25.2,17.8,5.3,22.5,15.0,0.6,93,89,80,30.27,30.04,17,7,18,0.00
2013-2-3,21.4,15.9,5.3,18.8,12.3,1.5,92,85,77,30.12,30.01,18,6,20,0.00
2013-2-4,28.1,24.5,19.7,24.1,21.7,17.5,93,89,83,30.10,29.87,10,4,0,0.00
2013-2-5,31.6,24.9,11.7,28.8,22.3,9.6,94,90,83,30.12,29.84,21,7,22,0.00
2013-2-6,37.7,30.3,18.9,30.1,25.3,15.9,90,82,69,30.28,30.12,13,4,15,0.00
2013-2-7,43.1,34.7,29.8,37.4,32.0,27.3,96,90,77,30.17,29.85,18,5,19,0.38
2013-2-8,33.1,29.0,26.6,31.5,26.2,22.9,95,89,81,30.42,29.92,23,9,24,0.00
2013-2-9,36.6,30.8,27.4,30.6,26.2,22.3,88,83,77,30.43,30.13,15,5,17,0.00
2013-2-10,48.9,39.8,31.2,46.7,37.2,26.8,95,90,78,30.13,29.55,29,11,37,0.18
2013-2-11,44.0,33.5,29.7,38.6,27.4,23.5,81,78,75,30.07,29.58,33,18,38,0.00
2013-2-12,29.7,26.5,20.7,25.0,22.6,18.5,93,85,81,30.15,29.97,17,6,19,0.00
2013-2-13,43.6,31.1,19.4,35.7,27.5,17.7,95,87,70,29.98,29.76,16,4,18,0.00
2013-2-14,39.9,35.0,30.3,35.0,30.6,25.9,93,84,71,30.01,29.71,24,9,25,0.00
2013-2-15,32.0,28.5,21.0,28.8,20.8,11.9,93,74,46,30.20,30.00,16,7,19,0.00
2013-2-16,21.2,17.1,11.3,14.0,8.4,4.9,78,69,55,30.23,30.15,17,8,19,0.00
2013-2-17,29.4,19.4,7.5,17.8,8.7,2.9,82,64,39,30.28,30.08,11,4,12,0.00
2013-2-18,52.7,39.6,26.0,44.5,32.8,17.5,93,77,64,30.09,29.46,34,14,35,0.20
2013-2-19,30.1,16.7,10.4,27.5,12.3,5.1,91,82,78,30.23,29.60,30,18,34,0.00
2013-2-20,24.6,15.8,7.2,17.6,9.8,2.6,88,77,65,30.40,30.23,15,6,17,0.00
2013-2-21,28.0,24.5,20.3,23.4,19.9,16.1,92,82,79,30.41,30.01,23,8,30,0.00
2013-2-22,33.1,28.0,23.3,31.8,25.7,21.4,96,91,81,30.00,29.86,22,10,23,0.02
2013-2-23,26.6,24.2,17.1,23.3,20.0,14.9,92,84,73,30.01,29.96,17,8,18,0.01
2013-2-24,36.1,23.4,11.1,25.0,18.7,8.9,92,83,61,30.19,30.01,9,2,0,0.00
2013-2-25,41.5,31.5,19.5,31.5,25.9,17.0,92,80,64,30.22,29.97,14,4,14,0.00
2013-2-26,34.2,32.7,32.0,31.3,29.4,25.8,96,88,72,29.96,29.50,24,10,29,0.39
2013-2-27,32.9,32.1,31.3,31.9,31.0,30.1,97,96,93,29.70,29.50,13,6,0,0.11
2013-2-28,34.6,32.1,28.6,31.9,29.6,25.0,96,90,83,30.07,29.70,20,11,23,0.01
2013-3-1,31.8,28.0,26.4,28.9,25.3,23.4,94,90,84,30.18,30.04,19,9,20,0.00
2013-3-2,29.5,26.4,19.1,24.0,22.2,15.0,92,84,76,30.20,30.15,14,6,0,0.00
2013-3-3,32.8,23.6,14.6,20.4,16.1,11.4,88,74,47,30.18,30.10,10,4,0,0.00
2013-3-4,33.4,26.6,18.6,27.5,21.7,15.8,91,82,66,30.17,30.03,13,5,15,0.00
2013-3-10,53.7,47.7,38.9,49.6,44.4,36.5,96,88,78,29.85,29.63,18,6,22,0.57
2013-3-11,48.6,38.5,31.8,47.2,37.0,29.5,97,94,90,29.83,29.58,22,10,24,0.10
2013-3-12,37.3,31.3,26.8,31.2,27.2,22.5,94,85,71,30.05,29.83,22,12,24,0.00
2013-3-13,32.9,27.2,23.1,23.3,20.0,16.8,90,74,55,30.37,30.05,21,10,22,0.00
2013-3-14,34.0,29.0,23.0,30.5,25.1,19.8,95,85,67,30.37,30.12,13,5,13,0.00
2013-3-15,43.7,35.5,27.6,40.1,33.3,26.1,96,92,84,30.12,29.73,13,4,0,0.02
2013-3-16,35.4,32.7,29.9,34.4,30.2,24.9,97,91,80,30.14,29.68,19,9,21,0.00
2013-3-17,34.7,31.2,28.9,26.5,24.6,21.9,86,76,67,30.22,30.01,18,8,21,0.00
2013-3-18,34.7,30.1,22.7,32.9,27.2,15.9,96,89,74,30.02,29.65,29,10,33,0.03
2013-3-19,33.9,25.7,18.6,22.4,17.7,12.6,82,72,56,30.12,29.85,31,17,35,0.00
2013-3-20,26.0,21.1,15.4,19.5,12.3,7.4,84,68,56,30.13,30.06,26,12,31,0.00
2013-3-21,33.4,22.8,12.6,19.6,13.7,7.6,84,69,48,30.10,30.03,15,6,18,0.00
2013-3-22,39.9,28.0,16.9,22.1,18.7,13.4,88,70,43,30.10,30.03,16,4,20,0.00
2013-3-23,40.7,30.7,22.5,27.0,23.7,19.9,93,76,49,30.16,30.02,16,4,18,0.00
2013-3-24,35.7,31.5,28.1,30.1,26.4,23.8,96,82,67,30.04,29.62,25,12,29,0.00
2013-3-25,35.9,32.3,28.4,31.2,27.7,25.9,96,83,76,30.09,29.67,24,12,27,0.00
2013-3-26,40.2,33.8,27.6,28.6,26.4,22.1,89,75,52,30.28,30.09,13,6,15,0.00
2013-3-27,31.4,31.4,31.4,27.1,27.1,27.1,84,84,84,30.28,30.28,0,0,0,0.00
2013-4-17,53.9,49.5,41.3,50.7,44.3,-99.9,96,91,38,30.08,29.80,24,10,30,0.87
2013-4-18,67.5,57.1,43.7,64.1,55.4,39.3,98,94,85,29.80,29.46,28,11,31,0.85
2013-4-19,43.7,43.7,43.7,39.8,39.8,39.8,86,86,86,29.55,29.55,14,14,24,0.85
2013-5-28,71.9,64.4,41.3,64.3,58.6,-99.9,95,92,38,29.97,29.80,31,6,34,0.06
2013-5-29,83.1,72.6,63.7,73.1,66.2,61.3,95,81,64,29.94,29.80,22,7,25,0.06
2013-5-30,82.6,74.3,64.8,71.9,67.0,61.2,92,79,65,29.94,29.80,26,10,31,0.11
2013-5-31,76.3,69.6,64.7,70.4,65.9,62.3,95,88,79,29.91,29.70,20,8,22,0.35
2013-6-1,74.7,67.4,61.2,69.0,63.3,58.8,94,87,74,29.79,29.63,24,11,29,0.26
2013-6-2,62.7,54.1,44.8,60.4,51.3,42.3,95,90,83,30.06,29.73,17,7,20,0.01
2013-6-3,66.5,54.1,40.3,49.6,44.8,39.0,96,73,44,30.14,30.04,9,2,0,0.00
2013-6-4,72.3,59.0,44.5,53.1,47.8,41.9,92,69,39,30.17,30.07,14,3,14,0.00
2013-6-5,76.8,64.9,53.1,56.4,52.2,48.4,89,66,40,30.08,29.90,14,4,17,0.00
2013-6-6,66.5,60.4,53.3,57.7,51.6,45.9,90,73,58,29.90,29.84,22,9,23,0.03
2013-6-7,67.0,58.7,50.5,56.8,50.0,41.4,93,74,53,29.93,29.87,19,8,22,0.00
2013-6-8,76.6,61.8,46.5,57.5,50.3,43.1,90,68,40,30.00,29.91,14,3,13,0.00
2013-6-9,80.4,70.9,59.9,63.4,57.4,50.5,84,64,44,30.00,29.80,16,5,18,0.00
2013-6-10,76.6,67.7,60.3,67.4,63.7,58.9,97,87,67,29.86,29.73,15,4,18,0.63
2013-6-11,83.1,70.6,57.1,69.0,63.7,56.3,98,81,52,29.93,29.79,11,3,13,0.01
2013-6-12,91.0,75.0,63.6,75.1,69.5,61.8,96,84,53,29.89,29.55,33,5,38,1.54
2013-6-13,69.4,63.6,56.4,62.0,58.0,52.9,96,83,67,30.04,29.61,22,9,22,0.05
2013-6-14,75.7,63.3,53.7,62.0,56.3,51.2,92,79,55,30.12,30.00,16,5,13,0.00
2013-6-15,77.5,68.4,57.6,69.0,63.3,54.7,92,84,72,30.06,29.88,18,4,20,0.16
2013-6-16,80.5,72.2,65.7,70.4,66.4,63.1,92,83,66,29.93,29.85,20,6,21,0.01
2013-6-17,85.3,74.5,62.1,70.3,61.7,51.9,96,68,36,29.93,29.83,21,4,21,0.00
2013-6-18,68.1,61.5,56.4,61.6,56.4,51.6,94,84,70,30.04,29.87,20,10,22,0.00
2013-6-19,77.1,65.7,55.3,59.5,54.6,50.1,91,69,50,30.13,30.04,14,4,14,0.00
2013-6-20,85.6,72.9,59.9,68.5,61.6,52.9,86,69,47,30.15,30.06,11,2,0,0.00
2013-6-21,85.6,73.0,65.9,70.1,65.8,61.3,90,79,57,30.14,29.88,44,5,53,1.06
2013-6-22,78.1,72.5,66.2,73.2,68.1,63.9,93,86,75,30.08,29.96,13,4,16,0.00
2013-6-23,83.3,73.1,63.8,74.7,67.9,62.3,96,85,71,30.04,29.93,22,5,26,0.00
2013-6-24,84.9,71.7,66.6,76.1,67.6,63.8,95,87,64,30.07,29.88,36,6,41,0.14
2013-6-25,86.7,76.0,67.7,76.5,70.4,63.8,96,84,65,29.95,29.79,22,6,22,0.00
2013-6-26,79.8,72.1,66.1,73.4,68.4,63.4,95,88,74,29.84,29.69,18,4,18,0.42
2013-6-27,87.5,75.5,63.9,75.3,68.4,62.7,97,80,55,29.77,29.66,18,5,22,0.00
2013-6-28,81.5,71.2,62.9,66.2,63.2,59.1,94,77,48,29.68,29.58,30,6,33,0.04
2013-6-29,71.6,65.1,62.1,65.8,62.2,58.8,96,90,80,29.73,29.57,19,7,23,0.00
2013-6-30,72.1,66.3,62.0,64.2,59.7,53.0,94,80,61,29.94,29.72,20,9,21,0.00
2013-7-1,72.1,65.9,56.8,60.4,57.2,52.1,91,74,59,30.02,29.94,24,9,24,0.00
2013-7-2,64.3,61.9,60.0,61.0,58.0,55.1,96,87,76,30.05,30.00,17,8,19,0.01
2013-7-3,73.0,64.8,58.2,66.5,62.2,56.8,98,91,77,30.08,29.99,15,4,16,0.00
2013-7-4,79.2,68.0,54.3,67.5,61.6,53.3,98,82,62,30.11,30.04,13,3,14,0.01
2013-7-5,81.5,70.7,55.5,69.3,64.2,54.4,98,81,63,30.09,30.01,11,2,0,0.00
2013-7-6,77.7,71.6,64.8,69.9,67.0,63.3,97,86,71,30.07,29.97,9,2,0,0.00
2013-7-7,85.0,75.2,66.2,73.5,69.5,65.0,96,83,64,30.03,29.94,14,4,18,0.00
2013-7-8,84.8,75.4,70.7,75.5,71.0,68.5,94,87,70,30.06,29.93,18,6,19,0.17
2013-7-9,83.2,77.5,72.3,78.2,74.3,70.7,97,90,78,29.99,29.86,17,4,20,0.05
2013-7-10,82.4,73.6,59.1,75.8,68.9,57.3,97,86,68,29.99,29.81,33,4,33,0.09
2013-7-11,77.0,66.8,56.4,64.4,57.8,53.3,96,75,46,30.09,29.99,16,4,17,0.01
2013-7-12,81.8,67.6,50.0,66.1,58.8,48.6,97,76,47,30.14,30.06,11,2,0,0.00
2013-7-13,82.5,71.2,56.2,67.2,62.2,54.5,96,75,53,30.16,30.08,13,3,15,0.00
2013-7-14,87.3,76.2,64.3,73.0,68.9,62.6,96,80,55,30.19,30.12,11,3,15,0.00
2013-7-15,88.9,79.1,69.9,78.1,73.0,67.8,97,83,63,30.25,30.17,9,2,0,0.00
2013-7-16,89.5,79.7,69.5,76.1,72.7,68.0,97,81,60,30.30,30.23,10,2,0,0.00
2013-7-17,91.0,80.7,68.1,76.6,72.4,66.6,97,78,53,30.31,30.16,10,2,12,0.00
2013-7-18,92.0,82.0,71.5,78.1,74.2,69.7,96,79,55,30.17,29.96,14,4,19,0.00
2013-7-19,93.2,83.5,73.7,76.8,73.6,69.9,93,74,48,29.96,29.76,22,8,27,0.00
2013-7-20,86.6,78.5,69.8,74.0,67.1,57.8,93,70,39,29.91,29.77,12,4,12,0.00
2013-7-21,86.2,75.7,64.7,72.1,68.0,63.1,97,79,52,29.94,29.83,14,3,14,0.03
2013-7-22,85.5,75.4,67.9,71.4,68.2,65.6,96,80,53,29.85,29.73,10,3,0,0.00
2013-7-23,78.6,69.9,61.5,69.5,62.8,54.1,93,79,67,29.95,29.66,20,8,27,0.00
2013-7-24,70.3,62.1,51.4,54.5,50.9,48.2,89,68,50,30.05,29.93,17,6,20,0.00
2013-7-25,79.0,64.7,48.1,59.3,53.8,46.2,95,71,44,30.12,30.03,9,2,0,0.00
2013-7-26,74.2,65.4,58.7,65.0,60.6,55.4,95,85,66,30.06,29.88,16,4,18,0.06
2013-7-27,68.0,61.4,52.2,65.4,54.9,47.6,96,80,58,29.93,29.85,18,6,22,0.01
2013-7-28,68.3,58.1,48.2,53.5,49.4,46.0,92,75,51,30.04,29.89,20,6,21,0.00
2013-7-29,76.2,62.3,49.7,60.6,54.1,47.2,94,76,48,30.18,30.04,15,4,17,0.00
2013-7-30,69.0,63.3,53.8,64.9,59.6,51.3,94,88,76,30.19,30.07,11,2,0,0.10
2013-7-31,73.6,67.6,63.4,68.8,65.2,61.6,97,92,83,30.07,29.94,10,2,0,0.07
2013-8-1,79.3,68.2,57.1,65.8,58.6,52.4,97,75,40,29.98,29.93,20,5,22,0.01
2013-8-2,82.8,68.3,56.1,73.1,63.5,53.6,95,86,68,29.96,29.83,24,5,27,0.38
2013-8-3,76.2,68.9,59.1,67.8,60.9,52.0,97,78,46,30.10,29.93,14,4,16,0.00
2013-8-4,74.5,64.7,52.7,61.9,56.9,51.3,97,78,51,30.18,30.10,15,3,15,0.00
2013-8-5,71.7,64.5,55.6,64.9,59.8,53.1,93,85,73,30.12,29.89,16,3,18,0.02
2013-8-6,79.8,70.5,63.3,71.8,67.0,61.8,97,89,74,29.92,29.84,10,4,0,0.00
2013-8-7,83.5,74.5,67.0,76.5,71.1,64.3,97,89,77,29.92,29.79,14,5,17,0.17
2013-8-8,77.8,69.3,63.7,66.6,62.7,55.1,96,80,61,29.99,29.91,15,6,15,0.00
2013-8-9,80.8,70.1,55.7,66.3,61.7,54.1,97,77,51,30.02,29.96,10,2,0,0.00
2013-8-10,80.4,70.5,60.0,68.4,61.0,55.8,97,74,46,30.11,30.02,13,3,14,0.00
2013-8-11,81.7,68.8,54.9,64.5,59.6,52.6,96,75,48,30.12,30.03,10,2,0,0.00
2013-8-12,82.8,72.5,61.0,71.0,65.6,59.1,95,80,57,30.05,29.84,15,5,16,0.00
2013-8-13,69.3,63.1,49.9,64.6,54.6,46.1,97,75,48,30.13,29.90,20,7,21,0.00
2013-8-14,70.3,58.9,49.4,55.3,51.6,46.7,95,79,51,30.23,30.13,12,2,13,0.00
2013-8-15,74.0,60.9,46.5,60.7,52.5,45.0,96,76,50,30.19,30.11,11,1,0,0.00
2013-8-16,77.8,66.0,53.9,60.0,55.4,51.1,95,72,43,30.19,30.12,12,2,16,0.00
2013-8-17,78.4,64.8,50.5,61.3,54.6,48.8,96,73,42,30.24,30.16,13,2,15,0.00
2013-8-18,82.3,67.3,51.7,63.6,57.8,50.6,98,75,44,30.20,30.09,9,1,0,0.00
2013-8-19,83.3,68.9,52.8,65.1,59.5,51.1,97,75,47,30.12,30.02,12,2,0,0.00
2013-8-20,85.3,72.2,58.3,68.3,64.0,56.9,97,78,51,30.13,30.03,20,2,20,0.00
2013-8-21,88.5,75.3,62.1,70.6,66.0,60.1,96,75,47,30.10,29.97,13,4,18,0.00
2013-8-22,74.1,69.6,62.2,69.2,67.2,61.0,96,92,81,30.12,29.98,16,4,18,0.57
2013-8-23,80.7,69.5,59.5,68.4,61.8,56.4,98,79,49,30.16,30.08,14,3,16,0.01
2013-8-24,82.5,69.6,56.3,64.8,58.9,53.9,94,71,46,30.26,30.16,11,2,15,0.00
2013-8-25,86.2,72.0,57.8,68.0,62.4,55.3,93,74,49,30.26,30.15,13,4,17,0.00
2013-8-26,88.3,74.3,61.0,74.2,67.7,59.0,94,81,60,30.17,30.01,15,4,16,0.00
2013-8-27,91.1,80.1,69.4,76.8,72.1,67.6,95,78,57,30.02,29.84,18,6,18,0.00
2013-8-28,82.3,75.3,69.8,73.5,69.3,65.9,95,82,69,30.01,29.83,15,6,21,0.00
2013-8-29,88.1,75.2,65.7,72.2,68.2,63.6,98,81,48,30.07,29.96,11,3,14,0.00
2013-8-30,93.4,76.4,64.4,76.6,69.2,62.7,97,81,48,29.97,29.75,24,5,30,0.21
2013-8-31,79.2,71.0,67.7,73.2,68.6,66.2,97,92,80,29.85,29.74,21,4,23,0.07
2013-9-1,82.3,72.7,65.3,72.1,68.5,64.4,98,88,63,29.80,29.73,12,3,14,0.01
2013-9-2,77.6,68.1,56.1,67.9,62.7,54.4,96,84,63,29.97,29.76,14,4,14,0.00
2013-9-3,75.3,63.0,51.7,58.8,55.0,49.6,97,78,50,30.08,29.96,11,2,13,0.01
2013-9-4,81.4,64.8,48.7,62.0,56.1,47.6,98,77,44,30.14,30.05,13,3,16,0.01
2013-9-5,76.6,65.9,57.4,64.1,57.2,49.3,95,75,52,30.22,30.11,14,4,14,0.00
2013-9-6,83.8,69.0,56.6,67.3,57.9,48.2,89,69,52,30.22,30.02,11,3,0,0.00
2013-9-7,87.3,72.6,60.2,66.6,62.8,58.3,97,75,44,30.03,29.89,16,4,18,0.00
2013-9-8,82.6,74.1,66.5,70.5,67.6,63.6,94,81,63,29.98,29.92,14,6,15,0.00
2013-9-9,95.5,78.7,64.5,75.3,69.8,63.0,96,76,48,29.95,29.82,14,5,17,0.00
2013-9-10,95.8,82.0,69.4,70.5,67.0,63.1,93,64,36,30.01,29.89,23,7,23,0.00
2013-9-11,93.5,79.2,70.6,70.1,68.7,66.6,94,73,43,30.04,29.95,19,6,21,0.20
2013-9-12,83.4,71.1,60.5,69.8,62.6,48.5,96,78,33,30.04,29.89,25,6,29,0.08
2013-9-13,65.8,57.3,44.2,58.2,49.4,41.4,93,76,49,30.14,30.03,21,7,26,0.00
2013-9-14,69.6,53.7,37.6,48.9,42.5,36.3,97,71,33,30.21,30.06,12,1,12,0.00
2013-9-15,68.4,58.0,48.1,58.7,52.3,43.8,96,82,59,30.14,29.97,11,2,0,0.16
2013-9-16,63.7,57.4,49.6,57.2,51.5,47.4,97,82,57,30.34,30.14,18,6,20,0.01
2013-9-17,71.3,59.3,46.6,54.4,50.5,44.6,93,75,52,30.34,30.12,13,3,15,0.00
2013-9-18,81.6,66.3,53.6,67.2,59.8,50.2,95,81,59,30.12,29.93,16,3,19,0.18
2013-9-19,83.2,72.4,65.2,74.5,68.1,62.5,94,87,73,29.99,29.80,17,6,23,0.17
2013-9-20,76.5,68.2,55.0,71.2,62.5,51.5,96,83,64,29.84,29.76,24,6,30,0.02
2013-9-21,67.2,57.0,47.2,53.4,48.9,43.3,96,77,47,29.94,29.79,15,5,17,0.01
2013-9-22,66.3,54.6,45.8,50.5,46.7,42.7,92,76,51,30.07,29.94,14,3,18,0.00
2013-9-23,70.9,56.2,42.7,49.2,45.9,40.4,93,71,43,30.12,30.03,10,3,0,0.00
2013-9-24,72.6,58.6,47.6,53.5,48.6,44.7,91,72,44,30.07,29.92,14,4,16,0.00
2013-9-25,74.0,59.7,49.0,55.5,50.9,46.3,94,75,44,29.96,29.90,15,4,17,0.00
2013-9-26,78.6,60.7,46.8,57.9,51.4,44.8,96,75,38,30.09,29.95,11,2,13,0.01
2013-9-27,81.8,65.6,50.2,55.7,49.2,45.4,96,59,30,30.17,30.06,12,3,16,0.00
2013-9-28,84.8,68.9,53.0,61.3,55.0,45.8,91,64,39,30.10,29.91,21,7,25,0.00
2013-9-29,72.2,59.4,44.9,62.3,52.7,43.1,95,80,54,30.03,29.92,17,5,18,0.18
2013-9-30,75.0,57.4,40.6,55.6,48.5,39.3,98,76,39,30.02,29.90,15,2,15,0.01
2013-10-1,78.8,67.2,56.0,66.0,61.8,52.8,97,84,62,29.99,29.91,20,7,23,0.00
2013-10-2,81.0,68.4,59.0,64.9,59.9,55.1,98,77,51,30.08,29.97,12,2,14,0.00
2013-10-3,79.2,67.5,59.5,70.7,65.3,56.9,98,93,74,29.98,29.83,22,4,22,0.00
2013-10-4,85.4,71.2,63.3,71.0,66.5,61.8,96,86,54,29.99,29.91,14,4,12,0.00
2013-10-5,79.8,70.5,65.6,71.6,67.7,63.9,97,91,74,29.95,29.75,14,5,20,0.00
2013-10-6,66.7,54.7,45.0,65.8,48.7,40.8,97,81,55,29.79,29.69,20,7,22,0.00
2013-10-7,66.0,52.0,43.5,50.4,45.3,41.9,95,80,49,30.11,29.78,18,6,20,0.00
2013-10-8,75.8,57.4,43.4,53.7,47.5,41.8,95,73,37,30.22,30.11,11,2,18,0.00
2013-10-9,72.2,57.7,43.0,50.0,45.8,41.4,95,68,36,30.26,30.14,12,2,12,0.00
2013-10-10,75.0,59.6,43.8,55.4,49.4,41.3,93,71,42,30.19,30.06,7,1,0,0.00
2013-10-11,76.0,61.8,51.4,55.8,49.3,45.1,82,66,41,30.10,29.97,12,2,13,0.00
2013-10-12,76.0,61.0,50.1,64.3,54.5,44.3,92,80,57,30.18,29.98,21,4,22,0.00
2013-10-13,64.6,51.2,39.8,45.4,40.6,31.5,93,71,30,30.41,30.18,13,3,15,0.00
2013-10-14,65.3,50.0,35.1,48.0,42.4,33.6,97,77,48,30.41,30.16,13,3,14,0.00
2013-10-15,63.6,56.4,49.9,61.3,52.9,44.7,96,88,76,30.16,29.81,15,7,18,0.00
2013-10-16,53.5,49.1,42.5,47.5,45.0,40.3,93,86,78,29.97,29.88,16,7,18,0.00
2013-10-17,53.8,47.1,38.3,47.3,43.8,36.5,95,88,70,29.96,29.85,19,5,21,0.00
2013-10-18,48.3,43.0,37.1,44.0,39.7,35.5,96,88,75,30.00,29.88,15,6,17,0.00
2013-10-19,53.4,46.2,40.4,42.2,38.7,33.7,95,77,49,29.97,29.82,22,8,25,0.00
2013-10-20,65.6,51.4,38.1,45.8,41.6,35.5,91,71,44,29.92,29.76,27,8,27,0.00
2013-10-21,54.0,44.6,29.6,47.2,37.2,24.8,93,76,54,30.00,29.83,20,8,23,0.00
2013-10-22,42.2,33.6,24.3,34.7,29.5,21.7,95,85,65,30.03,29.95,10,4,0,0.00
2013-11-29,41.3,31.1,26.0,23.5,19.0,-99.9,82,69,38,30.64,29.97,10,4,6,0.00
2013-11-30,49.4,35.3,25.5,33.1,27.5,21.3,88,74,52,30.47,30.10,20,7,22,0.00
2013-12-1,43.7,32.7,25.5,37.6,29.7,22.8,96,89,76,30.13,30.01,12,3,0,0.00
2013-12-2,40.5,35.3,29.1,34.3,30.7,27.9,96,84,65,30.01,29.78,16,5,16,0.15
2013-12-3,49.9,43.4,35.6,48.0,42.1,34.0,97,95,93,29.78,29.70,14,6,16,0.00
2013-12-4,56.4,49.7,42.4,55.2,48.6,38.8,98,96,88,29.77,29.54,24,8,28,0.00
2013-12-5,42.0,26.9,21.6,38.7,22.5,15.5,91,83,77,30.29,29.71,24,12,25,0.00
2013-12-6,21.6,18.6,11.2,16.1,12.5,7.3,84,77,67,30.57,30.26,11,6,0,0.00
2013-12-7,21.0,13.0,6.4,9.2,6.1,2.4,87,74,52,30.74,30.57,13,4,0,0.00
2013-12-8,25.4,20.3,9.6,24.1,17.2,6.6,95,88,78,30.65,30.00,15,6,19,0.00
2013-12-9,25.5,17.0,2.2,24.0,12.8,-3.0,94,83,72,30.30,29.99,23,12,26,0.00
2013-12-10,22.8,10.9,-5.5,15.0,5.1,-8.3,86,77,64,30.37,30.12,26,10,30,0.00
2013-12-11,20.3,12.2,-3.9,15.4,7.8,-7.8,92,82,71,30.64,30.34,16,7,0,0.00
2013-12-12,21.2,7.0,-8.8,14.0,2.4,-11.3,88,80,70,30.63,30.30,22,7,22,0.00
2013-12-13,29.4,20.8,8.3,26.1,16.7,5.2,95,84,71,30.30,30.14,10,4,0,0.01
2013-12-14,28.2,27.1,21.4,26.9,25.5,18.6,96,93,87,30.14,29.89,16,8,17,0.00
2013-12-15,21.0,13.1,10.1,18.8,9.3,6.0,93,84,79,30.18,29.98,23,11,26,0.01
2013-12-16,19.7,15.9,10.7,17.7,12.9,7.0,94,88,79,30.21,30.07,11,3,0,0.00
2013-12-17,30.2,22.8,16.6,26.5,19.9,14.9,95,89,79,30.14,30.01,18,10,20,0.04
2013-12-18,36.5,21.2,7.1,31.8,16.7,4.4,91,83,67,30.24,29.90,21,9,25,0.00
2013-12-19,39.2,35.4,28.1,37.1,33.1,25.9,97,91,83,29.98,29.81,19,4,21,0.09
2013-12-20,39.5,35.2,32.5,38.7,34.4,31.9,98,97,96,29.82,29.73,11,4,0,0.21
2013-12-21,33.9,32.3,30.6,33.3,31.8,30.0,98,98,97,29.86,29.53,19,7,22,0.46
2013-12-22,33.8,30.9,26.2,32.5,29.5,23.1,97,94,88,30.15,29.56,19,9,21,0.02
2013-12-23,26.5,13.6,0.5,24.5,10.3,-3.4,93,86,77,30.52,30.15,23,12,23,0.00
2013-12-24,18.1,8.3,-0.4,13.3,4.4,-3.9,87,83,79,30.65,30.43,18,8,0,0.00
2013-12-25,27.3,23.6,18.1,25.9,20.5,13.0,95,88,78,30.44,30.16,21,10,22,0.00
2013-12-26,33.9,25.6,11.6,29.3,21.6,8.5,92,85,79,30.35,30.15,22,10,25,0.01
2013-12-27,42.3,33.7,22.5,34.8,29.8,20.8,95,86,73,30.34,30.14,18,8,20,0.00
2013-12-28,49.0,38.4,31.0,40.0,33.5,28.6,92,83,69,30.15,29.89,17,8,21,0.00
2013-12-29,34.9,28.6,17.0,31.5,25.6,11.7,93,88,81,30.19,29.80,18,9,23,0.00
2013-12-30,16.6,11.1,5.5,11.8,6.6,1.7,90,82,74,30.37,30.18,13,6,0,0.00
2013-12-31,16.0,7.8,-2.3,14.0,5.3,-5.0,92,89,86,30.44,30.23,13,5,0,0.00
2014-1-1,19.8,17.5,14.3,16.3,14.9,11.9,92,90,85,30.33,30.18,16,9,0,0.00
2014-1-2,18.1,13.4,-3.1,15.9,10.8,-6.2,92,89,79,30.44,30.12,21,10,25,0.00